sensor_id;sensor_type;location;lat;lon;timestamp;temperature;humidity
51908;DHT22;39320;53.214;6.556;2023-11-21T00:00:31;10.30;99.90
51908;DHT22;39320;53.214;6.556;2023-11-21T00:02:57;10.40;99.90
51908;DHT22;39320;53.214;6.556;2023-11-21T00:05:23;10.30;99.90
51908;DHT22;39320;53.214;6.556;2023-11-21T00:07:49;10.30;99.90
51908;DHT22;39320;53.214;6.556;2023-11-21T00:10:14;10.30;99.90
51908;DHT22;39320;53.214;6.556;2023-11-21T00:12:42;10.40;99.90
51908;DHT22;39320;53.214;6.556;2023-11-21T00:15:08;10.30;99.90
51908;DHT22;39320;53.214;6.556;2023-11-21T00:17:37;10.30;99.90
51908;DHT22;39320;53.214;6.556;2023-11-21T00:20:05;10.40;99.90
51908;DHT22;39320;53.214;6.556;2023-11-21T00:22:35;10.30;99.90
51908;DHT22;39320;53.214;6.556;2023-11-21T00:25:02;10.30;99.90
51908;DHT22;39320;53.214;6.556;2023-11-21T00:27:29;10.40;99.90
51908;DHT22;39320;53.214;6.556;2023-11-21T00:29:55;10.30;99.90
51908;DHT22;39320;53.214;6.556;2023-11-21T00:32:24;10.30;99.90
51908;DHT22;39320;53.214;6.556;2023-11-21T00:34:49;10.50;99.90
51908;DHT22;39320;53.214;6.556;2023-11-21T00:37:15;10.30;99.90
51908;DHT22;39320;53.214;6.556;2023-11-21T00:39:44;9.90;99.90
51908;DHT22;39320;53.214;6.556;2023-11-21T00:42:09;10.30;99.90
51908;DHT22;39320;53.214;6.556;2023-11-21T00:44:38;10.30;99.90
51908;DHT22;39320;53.214;6.556;2023-11-21T00:47:04;10.30;99.90
51908;DHT22;39320;53.214;6.556;2023-11-21T00:49:30;10.20;99.90
51908;DHT22;39320;53.214;6.556;2023-11-21T00:51:56;10.40;99.90
51908;DHT22;39320;53.214;6.556;2023-11-21T00:54:23;10.20;99.90
51908;DHT22;39320;53.214;6.556;2023-11-21T00:56:49;10.20;99.90
51908;DHT22;39320;53.214;6.556;2023-11-21T00:59:15;10.30;99.90
51908;DHT22;39320;53.214;6.556;2023-11-21T01:01:41;10.20;99.90
51908;DHT22;39320;53.214;6.556;2023-11-21T01:04:07;10.20;99.90
51908;DHT22;39320;53.214;6.556;2023-11-21T01:06:33;10.20;99.90
51908;DHT22;39320;53.214;6.556;2023-11-21T01:08:59;10.30;99.90
51908;DHT22;39320;53.214;6.556;2023-11-21T01:11:27;10.30;99.90
51908;DHT22;39320;53.214;6.556;2023-11-21T01:13:56;10.20;99.90
51908;DHT22;39320;53.214;6.556;2023-11-21T01:16:22;10.30;99.90
51908;DHT22;39320;53.214;6.556;2023-11-21T01:18:47;10.30;99.90
51908;DHT22;39320;53.214;6.556;2023-11-21T01:21:16;10.20;99.90
51908;DHT22;39320;53.214;6.556;2023-11-21T01:23:42;10.30;99.90
51908;DHT22;39320;53.214;6.556;2023-11-21T01:26:07;10.30;99.90
51908;DHT22;39320;53.214;6.556;2023-11-21T01:28:34;10.30;99.90
51908;DHT22;39320;53.214;6.556;2023-11-21T01:30:59;10.30;99.90
51908;DHT22;39320;53.214;6.556;2023-11-21T01:33:25;10.30;99.90
51908;DHT22;39320;53.214;6.556;2023-11-21T01:35:51;10.30;99.90
51908;DHT22;39320;53.214;6.556;2023-11-21T01:38:21;10.30;99.90
51908;DHT22;39320;53.214;6.556;2023-11-21T01:40:47;10.30;99.90
51908;DHT22;39320;53.214;6.556;2023-11-21T01:43:13;10.30;99.90
51908;DHT22;39320;53.214;6.556;2023-11-21T01:45:39;10.40;99.90
51908;DHT22;39320;53.214;6.556;2023-11-21T01:48:05;10.30;99.90
51908;DHT22;39320;53.214;6.556;2023-11-21T01:50:33;10.30;99.90
51908;DHT22;39320;53.214;6.556;2023-11-21T01:52:59;10.30;99.90
51908;DHT22;39320;53.214;6.556;2023-11-21T01:55:27;10.30;99.90
51908;DHT22;39320;53.214;6.556;2023-11-21T01:57:53;10.30;99.90
51908;DHT22;39320;53.214;6.556;2023-11-21T02:00:19;10.40;99.90
51908;DHT22;39320;53.214;6.556;2023-11-21T02:02:46;10.30;99.90
51908;DHT22;39320;53.214;6.556;2023-11-21T02:05:14;10.40;99.90
51908;DHT22;39320;53.214;6.556;2023-11-21T02:07:41;10.30;99.90
51908;DHT22;39320;53.214;6.556;2023-11-21T02:10:08;10.40;99.90
51908;DHT22;39320;53.214;6.556;2023-11-21T02:12:35;10.30;99.90
51908;DHT22;39320;53.214;6.556;2023-11-21T02:15:05;10.30;99.90
51908;DHT22;39320;53.214;6.556;2023-11-21T02:17:35;10.40;99.90
51908;DHT22;39320;53.214;6.556;2023-11-21T02:20:02;10.40;99.90
51908;DHT22;39320;53.214;6.556;2023-11-21T02:22:31;10.40;99.90
51908;DHT22;39320;53.214;6.556;2023-11-21T02:24:58;10.50;99.90
51908;DHT22;39320;53.214;6.556;2023-11-21T02:27:24;10.40;99.90
51908;DHT22;39320;53.214;6.556;2023-11-21T02:29:50;10.40;99.90
51908;DHT22;39320;53.214;6.556;2023-11-21T02:32:16;10.40;99.90
51908;DHT22;39320;53.214;6.556;2023-11-21T02:34:45;10.40;99.90
51908;DHT22;39320;53.214;6.556;2023-11-21T02:37:10;10.40;99.90
51908;DHT22;39320;53.214;6.556;2023-11-21T02:39:36;10.40;99.90
51908;DHT22;39320;53.214;6.556;2023-11-21T02:42:03;10.40;99.90
51908;DHT22;39320;53.214;6.556;2023-11-21T02:44:29;10.40;99.90
51908;DHT22;39320;53.214;6.556;2023-11-21T02:46:55;10.40;99.90
51908;DHT22;39320;53.214;6.556;2023-11-21T02:49:23;10.40;99.90
51908;DHT22;39320;53.214;6.556;2023-11-21T02:51:49;10.40;99.90
51908;DHT22;39320;53.214;6.556;2023-11-21T02:54:14;10.40;99.90
51908;DHT22;39320;53.214;6.556;2023-11-21T02:56:42;10.40;99.90
51908;DHT22;39320;53.214;6.556;2023-11-21T02:59:08;10.40;99.90
51908;DHT22;39320;53.214;6.556;2023-11-21T03:01:34;10.40;99.90
51908;DHT22;39320;53.214;6.556;2023-11-21T03:04:00;10.40;99.90
51908;DHT22;39320;53.214;6.556;2023-11-21T03:06:27;10.40;99.90
51908;DHT22;39320;53.214;6.556;2023-11-21T03:08:53;10.40;99.90
51908;DHT22;39320;53.214;6.556;2023-11-21T03:11:18;10.40;99.90
51908;DHT22;39320;53.214;6.556;2023-11-21T03:13:46;10.40;99.90
51908;DHT22;39320;53.214;6.556;2023-11-21T03:16:12;10.40;99.90
51908;DHT22;39320;53.214;6.556;2023-11-21T03:18:38;10.40;99.90
51908;DHT22;39320;53.214;6.556;2023-11-21T03:21:05;10.40;99.90
51908;DHT22;39320;53.214;6.556;2023-11-21T03:23:46;10.30;99.90
51908;DHT22;39320;53.214;6.556;2023-11-21T03:26:12;10.40;99.90
51908;DHT22;39320;53.214;6.556;2023-11-21T03:28:38;10.40;99.90
51908;DHT22;39320;53.214;6.556;2023-11-21T03:31:05;10.40;99.90
51908;DHT22;39320;53.214;6.556;2023-11-21T03:33:32;10.40;99.90
51908;DHT22;39320;53.214;6.556;2023-11-21T03:35:58;10.40;99.90
51908;DHT22;39320;53.214;6.556;2023-11-21T03:38:23;10.40;99.90
51908;DHT22;39320;53.214;6.556;2023-11-21T03:40:49;10.40;99.90
51908;DHT22;39320;53.214;6.556;2023-11-21T03:43:16;10.30;99.90
51908;DHT22;39320;53.214;6.556;2023-11-21T03:45:41;10.30;99.90
51908;DHT22;39320;53.214;6.556;2023-11-21T03:48:08;10.40;99.90
51908;DHT22;39320;53.214;6.556;2023-11-21T03:50:34;10.40;99.90
51908;DHT22;39320;53.214;6.556;2023-11-21T03:53:00;10.40;99.90
51908;DHT22;39320;53.214;6.556;2023-11-21T03:55:26;10.30;99.90
51908;DHT22;39320;53.214;6.556;2023-11-21T03:57:52;10.40;99.90
51908;DHT22;39320;53.214;6.556;2023-11-21T04:00:18;10.40;99.90
51908;DHT22;39320;53.214;6.556;2023-11-21T04:02:45;10.30;99.90
51908;DHT22;39320;53.214;6.556;2023-11-21T04:05:11;10.30;99.90
51908;DHT22;39320;53.214;6.556;2023-11-21T04:07:38;10.30;99.90
51908;DHT22;39320;53.214;6.556;2023-11-21T04:10:06;10.30;99.90
51908;DHT22;39320;53.214;6.556;2023-11-21T04:12:36;10.30;99.90
51908;DHT22;39320;53.214;6.556;2023-11-21T04:15:03;10.30;99.90
51908;DHT22;39320;53.214;6.556;2023-11-21T04:17:29;10.30;99.90
51908;DHT22;39320;53.214;6.556;2023-11-21T04:19:54;10.30;99.90
51908;DHT22;39320;53.214;6.556;2023-11-21T04:22:21;10.40;99.90
51908;DHT22;39320;53.214;6.556;2023-11-21T04:24:46;10.30;99.90
51908;DHT22;39320;53.214;6.556;2023-11-21T04:27:12;10.30;99.90
51908;DHT22;39320;53.214;6.556;2023-11-21T04:29:38;10.30;99.90
51908;DHT22;39320;53.214;6.556;2023-11-21T04:32:04;10.30;99.90
51908;DHT22;39320;53.214;6.556;2023-11-21T04:34:30;10.30;99.90
51908;DHT22;39320;53.214;6.556;2023-11-21T04:36:57;10.30;99.90
51908;DHT22;39320;53.214;6.556;2023-11-21T04:39:22;10.30;99.90
51908;DHT22;39320;53.214;6.556;2023-11-21T04:41:49;10.40;99.90
51908;DHT22;39320;53.214;6.556;2023-11-21T04:44:15;10.30;99.90
51908;DHT22;39320;53.214;6.556;2023-11-21T04:46:42;10.30;99.90
51908;DHT22;39320;53.214;6.556;2023-11-21T04:49:08;10.30;99.90
51908;DHT22;39320;53.214;6.556;2023-11-21T04:51:34;10.30;99.90
51908;DHT22;39320;53.214;6.556;2023-11-21T04:53:59;10.30;99.90
51908;DHT22;39320;53.214;6.556;2023-11-21T04:56:25;10.50;99.90
51908;DHT22;39320;53.214;6.556;2023-11-21T04:58:53;10.30;99.90
51908;DHT22;39320;53.214;6.556;2023-11-21T05:01:19;10.30;99.90
51908;DHT22;39320;53.214;6.556;2023-11-21T05:03:44;10.30;99.90
51908;DHT22;39320;53.214;6.556;2023-11-21T05:06:12;10.30;99.90
51908;DHT22;39320;53.214;6.556;2023-11-21T05:08:39;10.30;99.90
51908;DHT22;39320;53.214;6.556;2023-11-21T05:11:05;10.30;99.90
51908;DHT22;39320;53.214;6.556;2023-11-21T05:13:34;10.30;99.90
51908;DHT22;39320;53.214;6.556;2023-11-21T05:16:00;10.20;99.90
51908;DHT22;39320;53.214;6.556;2023-11-21T05:18:25;10.20;99.90
51908;DHT22;39320;53.214;6.556;2023-11-21T05:20:55;10.20;99.90
51908;DHT22;39320;53.214;6.556;2023-11-21T05:23:21;10.20;99.90
51908;DHT22;39320;53.214;6.556;2023-11-21T05:25:47;10.20;99.90
51908;DHT22;39320;53.214;6.556;2023-11-21T05:28:13;10.20;99.90
51908;DHT22;39320;53.214;6.556;2023-11-21T05:30:39;10.20;99.90
51908;DHT22;39320;53.214;6.556;2023-11-21T05:33:05;10.20;99.90
51908;DHT22;39320;53.214;6.556;2023-11-21T05:35:31;10.30;99.90
51908;DHT22;39320;53.214;6.556;2023-11-21T05:37:57;10.20;99.90
51908;DHT22;39320;53.214;6.556;2023-11-21T05:40:22;10.30;99.90
51908;DHT22;39320;53.214;6.556;2023-11-21T05:42:48;10.20;99.90
51908;DHT22;39320;53.214;6.556;2023-11-21T05:45:14;10.20;99.90
51908;DHT22;39320;53.214;6.556;2023-11-21T05:47:44;10.20;99.90
51908;DHT22;39320;53.214;6.556;2023-11-21T05:50:13;10.20;99.90
51908;DHT22;39320;53.214;6.556;2023-11-21T05:52:46;10.20;99.90
51908;DHT22;39320;53.214;6.556;2023-11-21T05:55:12;10.20;99.90
51908;DHT22;39320;53.214;6.556;2023-11-21T05:57:39;10.20;99.90
51908;DHT22;39320;53.214;6.556;2023-11-21T06:00:10;10.20;99.90
51908;DHT22;39320;53.214;6.556;2023-11-21T06:02:56;10.30;99.90
51908;DHT22;39320;53.214;6.556;2023-11-21T06:05:24;10.30;99.90
51908;DHT22;39320;53.214;6.556;2023-11-21T06:07:51;10.30;99.90
51908;DHT22;39320;53.214;6.556;2023-11-21T06:10:19;10.30;99.90
51908;DHT22;39320;53.214;6.556;2023-11-21T06:12:45;10.30;99.90
51908;DHT22;39320;53.214;6.556;2023-11-21T06:15:11;10.30;99.90
51908;DHT22;39320;53.214;6.556;2023-11-21T06:17:39;10.20;99.90
51908;DHT22;39320;53.214;6.556;2023-11-21T06:20:06;10.20;99.90
51908;DHT22;39320;53.214;6.556;2023-11-21T06:22:43;10.20;99.90
51908;DHT22;39320;53.214;6.556;2023-11-21T06:25:10;10.20;99.90
51908;DHT22;39320;53.214;6.556;2023-11-21T06:27:44;10.20;99.90
51908;DHT22;39320;53.214;6.556;2023-11-21T06:30:11;10.20;99.90
51908;DHT22;39320;53.214;6.556;2023-11-21T06:32:38;10.10;99.90
51908;DHT22;39320;53.214;6.556;2023-11-21T06:35:04;10.10;99.90
51908;DHT22;39320;53.214;6.556;2023-11-21T06:37:31;10.10;99.90
51908;DHT22;39320;53.214;6.556;2023-11-21T06:39:58;10.10;99.90
51908;DHT22;39320;53.214;6.556;2023-11-21T06:42:24;10.10;99.90
51908;DHT22;39320;53.214;6.556;2023-11-21T06:44:51;10.10;99.90
51908;DHT22;39320;53.214;6.556;2023-11-21T06:47:22;10.20;99.90
51908;DHT22;39320;53.214;6.556;2023-11-21T06:49:51;10.10;99.90
51908;DHT22;39320;53.214;6.556;2023-11-21T06:52:17;10.10;99.90
51908;DHT22;39320;53.214;6.556;2023-11-21T06:54:43;10.10;99.90
51908;DHT22;39320;53.214;6.556;2023-11-21T06:57:11;10.10;99.90
51908;DHT22;39320;53.214;6.556;2023-11-21T06:59:36;10.10;99.90
51908;DHT22;39320;53.214;6.556;2023-11-21T07:02:03;10.10;99.90
51908;DHT22;39320;53.214;6.556;2023-11-21T07:04:34;10.10;99.90
51908;DHT22;39320;53.214;6.556;2023-11-21T07:07:00;10.10;99.90
51908;DHT22;39320;53.214;6.556;2023-11-21T07:09:26;10.10;99.90
51908;DHT22;39320;53.214;6.556;2023-11-21T07:11:52;10.10;99.90
51908;DHT22;39320;53.214;6.556;2023-11-21T07:14:18;10.10;99.90
51908;DHT22;39320;53.214;6.556;2023-11-21T07:16:45;10.10;99.90
51908;DHT22;39320;53.214;6.556;2023-11-21T07:19:12;10.10;99.90
51908;DHT22;39320;53.214;6.556;2023-11-21T07:21:39;10.00;99.90
51908;DHT22;39320;53.214;6.556;2023-11-21T07:24:06;10.10;99.90
51908;DHT22;39320;53.214;6.556;2023-11-21T07:26:32;10.00;99.90
51908;DHT22;39320;53.214;6.556;2023-11-21T07:28:59;10.00;99.90
51908;DHT22;39320;53.214;6.556;2023-11-21T07:31:25;10.00;99.90
51908;DHT22;39320;53.214;6.556;2023-11-21T07:33:51;9.90;99.90
51908;DHT22;39320;53.214;6.556;2023-11-21T07:36:17;9.90;99.90
51908;DHT22;39320;53.214;6.556;2023-11-21T07:38:46;9.90;99.90
51908;DHT22;39320;53.214;6.556;2023-11-21T07:41:13;9.90;99.90
51908;DHT22;39320;53.214;6.556;2023-11-21T07:43:46;9.90;99.90
51908;DHT22;39320;53.214;6.556;2023-11-21T07:46:12;9.90;99.90
51908;DHT22;39320;53.214;6.556;2023-11-21T07:48:39;9.90;99.90
51908;DHT22;39320;53.214;6.556;2023-11-21T07:51:05;9.90;99.90
51908;DHT22;39320;53.214;6.556;2023-11-21T07:53:35;9.90;99.90
51908;DHT22;39320;53.214;6.556;2023-11-21T07:56:08;9.90;99.90
51908;DHT22;39320;53.214;6.556;2023-11-21T07:58:36;9.90;99.90
51908;DHT22;39320;53.214;6.556;2023-11-21T08:01:03;9.80;99.90
51908;DHT22;39320;53.214;6.556;2023-11-21T08:03:30;9.80;99.90
51908;DHT22;39320;53.214;6.556;2023-11-21T08:05:56;9.80;99.90
51908;DHT22;39320;53.214;6.556;2023-11-21T08:08:23;9.90;99.90
51908;DHT22;39320;53.214;6.556;2023-11-21T08:10:49;9.90;99.90
51908;DHT22;39320;53.214;6.556;2023-11-21T08:13:25;9.80;99.90
51908;DHT22;39320;53.214;6.556;2023-11-21T08:15:54;9.90;99.90
51908;DHT22;39320;53.214;6.556;2023-11-21T08:18:20;9.80;99.90
51908;DHT22;39320;53.214;6.556;2023-11-21T08:20:46;9.80;99.90
51908;DHT22;39320;53.214;6.556;2023-11-21T08:23:15;9.80;99.90
51908;DHT22;39320;53.214;6.556;2023-11-21T08:25:44;9.80;99.90
51908;DHT22;39320;53.214;6.556;2023-11-21T08:28:10;9.80;99.90
51908;DHT22;39320;53.214;6.556;2023-11-21T08:30:36;9.80;99.90
51908;DHT22;39320;53.214;6.556;2023-11-21T08:33:02;9.80;99.90
51908;DHT22;39320;53.214;6.556;2023-11-21T08:35:29;9.80;99.90
51908;DHT22;39320;53.214;6.556;2023-11-21T08:37:55;9.80;99.90
51908;DHT22;39320;53.214;6.556;2023-11-21T08:40:21;9.80;99.90
51908;DHT22;39320;53.214;6.556;2023-11-21T08:42:47;9.80;99.90
51908;DHT22;39320;53.214;6.556;2023-11-21T08:45:17;9.80;99.90
51908;DHT22;39320;53.214;6.556;2023-11-21T08:47:43;9.80;99.90
51908;DHT22;39320;53.214;6.556;2023-11-21T08:50:12;9.80;99.90
51908;DHT22;39320;53.214;6.556;2023-11-21T08:52:39;9.80;99.90
51908;DHT22;39320;53.214;6.556;2023-11-21T08:55:06;9.80;99.90
51908;DHT22;39320;53.214;6.556;2023-11-21T08:57:39;9.80;99.90
51908;DHT22;39320;53.214;6.556;2023-11-21T09:00:07;9.80;99.90
51908;DHT22;39320;53.214;6.556;2023-11-21T09:02:39;9.80;99.90
51908;DHT22;39320;53.214;6.556;2023-11-21T09:05:09;9.70;99.90
51908;DHT22;39320;53.214;6.556;2023-11-21T09:07:39;9.60;99.90
51908;DHT22;39320;53.214;6.556;2023-11-21T09:10:06;9.60;99.90
51908;DHT22;39320;53.214;6.556;2023-11-21T09:12:33;9.60;99.90
51908;DHT22;39320;53.214;6.556;2023-11-21T09:15:03;9.60;99.90
51908;DHT22;39320;53.214;6.556;2023-11-21T09:17:30;9.60;99.90
51908;DHT22;39320;53.214;6.556;2023-11-21T09:19:55;9.60;99.90
51908;DHT22;39320;53.214;6.556;2023-11-21T09:22:22;9.60;99.90
51908;DHT22;39320;53.214;6.556;2023-11-21T09:24:50;9.60;99.90
51908;DHT22;39320;53.214;6.556;2023-11-21T09:27:16;9.60;99.90
51908;DHT22;39320;53.214;6.556;2023-11-21T09:29:43;9.60;99.90
51908;DHT22;39320;53.214;6.556;2023-11-21T09:32:09;9.70;99.90
51908;DHT22;39320;53.214;6.556;2023-11-21T09:34:38;9.70;99.90
51908;DHT22;39320;53.214;6.556;2023-11-21T09:37:06;9.70;99.90
51908;DHT22;39320;53.214;6.556;2023-11-21T09:39:33;9.70;99.90
51908;DHT22;39320;53.214;6.556;2023-11-21T09:47:06;9.60;99.90
51908;DHT22;39320;53.214;6.556;2023-11-21T09:49:37;9.60;99.90
51908;DHT22;39320;53.214;6.556;2023-11-21T09:52:04;9.60;99.90
51908;DHT22;39320;53.214;6.556;2023-11-21T09:54:32;9.60;99.90
51908;DHT22;39320;53.214;6.556;2023-11-21T09:56:59;9.60;99.90
51908;DHT22;39320;53.214;6.556;2023-11-21T09:59:30;9.50;99.90
51908;DHT22;39320;53.214;6.556;2023-11-21T10:01:58;9.50;99.90
51908;DHT22;39320;53.214;6.556;2023-11-21T10:04:24;9.50;99.90
51908;DHT22;39320;53.214;6.556;2023-11-21T10:06:53;9.50;99.90
51908;DHT22;39320;53.214;6.556;2023-11-21T10:09:19;9.50;99.90
51908;DHT22;39320;53.214;6.556;2023-11-21T10:11:47;9.50;99.90
51908;DHT22;39320;53.214;6.556;2023-11-21T10:14:17;9.50;99.90
51908;DHT22;39320;53.214;6.556;2023-11-21T10:16:44;9.50;99.90
51908;DHT22;39320;53.214;6.556;2023-11-21T10:19:12;9.50;99.90
51908;DHT22;39320;53.214;6.556;2023-11-21T10:21:39;9.60;99.90
51908;DHT22;39320;53.214;6.556;2023-11-21T10:24:05;9.60;99.90
51908;DHT22;39320;53.214;6.556;2023-11-21T10:26:32;9.60;99.90
51908;DHT22;39320;53.214;6.556;2023-11-21T10:29:00;9.60;99.90
51908;DHT22;39320;53.214;6.556;2023-11-21T10:31:32;9.60;99.90
51908;DHT22;39320;53.214;6.556;2023-11-21T10:34:18;9.60;99.90
51908;DHT22;39320;53.214;6.556;2023-11-21T10:36:45;9.60;99.90
51908;DHT22;39320;53.214;6.556;2023-11-21T10:39:18;9.60;99.90
51908;DHT22;39320;53.214;6.556;2023-11-21T10:41:48;9.60;99.90
51908;DHT22;39320;53.214;6.556;2023-11-21T10:44:14;9.50;99.90
51908;DHT22;39320;53.214;6.556;2023-11-21T10:46:47;9.60;99.90
51908;DHT22;39320;53.214;6.556;2023-11-21T10:49:20;9.60;99.90
51908;DHT22;39320;53.214;6.556;2023-11-21T10:51:46;9.50;99.90
51908;DHT22;39320;53.214;6.556;2023-11-21T10:54:19;9.50;99.90
51908;DHT22;39320;53.214;6.556;2023-11-21T10:56:50;9.50;99.90
51908;DHT22;39320;53.214;6.556;2023-11-21T10:59:17;9.50;99.90
51908;DHT22;39320;53.214;6.556;2023-11-21T11:01:45;9.50;99.90
51908;DHT22;39320;53.214;6.556;2023-11-21T11:04:15;9.50;99.90
51908;DHT22;39320;53.214;6.556;2023-11-21T11:06:43;9.50;99.90
51908;DHT22;39320;53.214;6.556;2023-11-21T11:09:13;9.50;99.90
51908;DHT22;39320;53.214;6.556;2023-11-21T11:11:43;9.50;99.90
51908;DHT22;39320;53.214;6.556;2023-11-21T11:14:13;9.50;99.90
51908;DHT22;39320;53.214;6.556;2023-11-21T11:16:40;9.60;99.90
51908;DHT22;39320;53.214;6.556;2023-11-21T11:19:07;9.60;99.90
51908;DHT22;39320;53.214;6.556;2023-11-21T11:24:13;9.60;99.90
51908;DHT22;39320;53.214;6.556;2023-11-21T11:26:55;9.60;99.90
51908;DHT22;39320;53.214;6.556;2023-11-21T11:32:12;9.70;99.90
51908;DHT22;39320;53.214;6.556;2023-11-21T11:34:48;9.70;99.90
51908;DHT22;39320;53.214;6.556;2023-11-21T11:37:16;9.80;99.90
51908;DHT22;39320;53.214;6.556;2023-11-21T11:39:42;9.80;99.90
51908;DHT22;39320;53.214;6.556;2023-11-21T11:42:16;9.90;99.90
51908;DHT22;39320;53.214;6.556;2023-11-21T11:47:19;9.90;99.90
51908;DHT22;39320;53.214;6.556;2023-11-21T11:52:36;9.90;99.90
51908;DHT22;39320;53.214;6.556;2023-11-21T11:55:03;9.90;99.90
51908;DHT22;39320;53.214;6.556;2023-11-21T11:57:34;10.00;99.90
51908;DHT22;39320;53.214;6.556;2023-11-21T12:02:48;10.10;99.90
51908;DHT22;39320;53.214;6.556;2023-11-21T12:05:16;10.10;99.90
51908;DHT22;39320;53.214;6.556;2023-11-21T12:07:55;10.20;99.90
51908;DHT22;39320;53.214;6.556;2023-11-21T12:10:24;10.30;99.90
51908;DHT22;39320;53.214;6.556;2023-11-21T12:12:58;10.40;99.90
51908;DHT22;39320;53.214;6.556;2023-11-21T12:15:24;10.20;99.90
51908;DHT22;39320;53.214;6.556;2023-11-21T12:17:51;10.20;99.90
51908;DHT22;39320;53.214;6.556;2023-11-21T12:20:24;10.20;99.90
51908;DHT22;39320;53.214;6.556;2023-11-21T12:22:52;10.20;99.90
51908;DHT22;39320;53.214;6.556;2023-11-21T12:25:20;10.20;99.90
51908;DHT22;39320;53.214;6.556;2023-11-21T12:27:49;10.20;99.90
51908;DHT22;39320;53.214;6.556;2023-11-21T12:30:16;10.20;99.90
51908;DHT22;39320;53.214;6.556;2023-11-21T12:32:49;10.30;99.90
51908;DHT22;39320;53.214;6.556;2023-11-21T12:35:17;10.30;99.90
51908;DHT22;39320;53.214;6.556;2023-11-21T12:37:45;10.30;99.90
51908;DHT22;39320;53.214;6.556;2023-11-21T12:40:13;10.30;99.90
51908;DHT22;39320;53.214;6.556;2023-11-21T12:42:48;10.30;99.90
51908;DHT22;39320;53.214;6.556;2023-11-21T12:45:18;10.30;99.90
51908;DHT22;39320;53.214;6.556;2023-11-21T12:47:51;10.30;99.90
51908;DHT22;39320;53.214;6.556;2023-11-21T12:50:24;10.30;99.90
51908;DHT22;39320;53.214;6.556;2023-11-21T12:52:58;10.40;99.90
51908;DHT22;39320;53.214;6.556;2023-11-21T12:55:24;10.40;99.90
51908;DHT22;39320;53.214;6.556;2023-11-21T12:57:53;10.40;99.90
51908;DHT22;39320;53.214;6.556;2023-11-21T13:00:34;10.30;99.90
51908;DHT22;39320;53.214;6.556;2023-11-21T13:03:04;10.20;99.90
51908;DHT22;39320;53.214;6.556;2023-11-21T13:05:39;10.30;99.90
51908;DHT22;39320;53.214;6.556;2023-11-21T13:08:06;10.30;99.90
51908;DHT22;39320;53.214;6.556;2023-11-21T13:10:39;10.20;99.90
51908;DHT22;39320;53.214;6.556;2023-11-21T13:13:08;10.20;99.90
51908;DHT22;39320;53.214;6.556;2023-11-21T13:15:38;10.30;99.90
51908;DHT22;39320;53.214;6.556;2023-11-21T13:18:06;10.30;99.90
51908;DHT22;39320;53.214;6.556;2023-11-21T13:20:33;10.30;99.90
51908;DHT22;39320;53.214;6.556;2023-11-21T13:22:59;10.30;99.90
51908;DHT22;39320;53.214;6.556;2023-11-21T13:25:27;10.20;99.90
51908;DHT22;39320;53.214;6.556;2023-11-21T13:27:54;10.20;99.90
51908;DHT22;39320;53.214;6.556;2023-11-21T13:30:21;10.10;99.90
51908;DHT22;39320;53.214;6.556;2023-11-21T13:32:59;10.10;99.90
51908;DHT22;39320;53.214;6.556;2023-11-21T13:35:31;10.00;99.90
51908;DHT22;39320;53.214;6.556;2023-11-21T13:38:11;10.00;99.90
51908;DHT22;39320;53.214;6.556;2023-11-21T13:40:38;9.90;99.90
51908;DHT22;39320;53.214;6.556;2023-11-21T13:43:13;9.90;99.90
51908;DHT22;39320;53.214;6.556;2023-11-21T13:45:43;9.80;99.90
51908;DHT22;39320;53.214;6.556;2023-11-21T13:48:11;9.70;99.90
51908;DHT22;39320;53.214;6.556;2023-11-21T13:50:40;9.70;99.90
51908;DHT22;39320;53.214;6.556;2023-11-21T13:53:14;9.70;99.90
51908;DHT22;39320;53.214;6.556;2023-11-21T13:55:49;9.70;99.90
51908;DHT22;39320;53.214;6.556;2023-11-21T13:58:16;9.70;99.90
51908;DHT22;39320;53.214;6.556;2023-11-21T14:00:45;9.70;99.90
51908;DHT22;39320;53.214;6.556;2023-11-21T14:03:13;9.70;99.90
51908;DHT22;39320;53.214;6.556;2023-11-21T14:05:47;9.70;99.90
51908;DHT22;39320;53.214;6.556;2023-11-21T14:08:20;9.70;99.90
51908;DHT22;39320;53.214;6.556;2023-11-21T14:10:50;9.60;99.90
51908;DHT22;39320;53.214;6.556;2023-11-21T14:13:23;9.60;99.90
51908;DHT22;39320;53.214;6.556;2023-11-21T14:15:50;9.70;99.90
51908;DHT22;39320;53.214;6.556;2023-11-21T14:18:26;9.60;99.90
51908;DHT22;39320;53.214;6.556;2023-11-21T14:20:56;9.60;99.90
51908;DHT22;39320;53.214;6.556;2023-11-21T14:23:22;9.80;99.90
51908;DHT22;39320;53.214;6.556;2023-11-21T14:25:49;9.50;99.90
51908;DHT22;39320;53.214;6.556;2023-11-21T14:28:18;9.50;99.90
51908;DHT22;39320;53.214;6.556;2023-11-21T14:30:46;9.50;99.90
51908;DHT22;39320;53.214;6.556;2023-11-21T14:33:12;9.50;99.90
51908;DHT22;39320;53.214;6.556;2023-11-21T14:35:38;9.50;99.90
51908;DHT22;39320;53.214;6.556;2023-11-21T14:38:04;9.60;99.90
51908;DHT22;39320;53.214;6.556;2023-11-21T14:40:33;9.40;99.90
51908;DHT22;39320;53.214;6.556;2023-11-21T14:43:02;9.50;99.90
51908;DHT22;39320;53.214;6.556;2023-11-21T14:45:31;9.50;99.90
51908;DHT22;39320;53.214;6.556;2023-11-21T14:47:57;9.40;99.90
51908;DHT22;39320;53.214;6.556;2023-11-21T14:50:34;9.40;99.90
51908;DHT22;39320;53.214;6.556;2023-11-21T14:53:12;9.40;99.90
51908;DHT22;39320;53.214;6.556;2023-11-21T14:55:41;9.40;99.90
51908;DHT22;39320;53.214;6.556;2023-11-21T14:58:17;9.40;99.90
51908;DHT22;39320;53.214;6.556;2023-11-21T15:01:01;9.40;99.90
51908;DHT22;39320;53.214;6.556;2023-11-21T15:03:28;9.30;99.90
51908;DHT22;39320;53.214;6.556;2023-11-21T15:06:02;9.30;99.90
51908;DHT22;39320;53.214;6.556;2023-11-21T15:08:51;9.30;99.90
51908;DHT22;39320;53.214;6.556;2023-11-21T15:11:32;9.30;99.90
51908;DHT22;39320;53.214;6.556;2023-11-21T15:13:58;9.30;99.90
51908;DHT22;39320;53.214;6.556;2023-11-21T15:16:24;9.30;99.90
51908;DHT22;39320;53.214;6.556;2023-11-21T15:18:55;9.30;99.90
51908;DHT22;39320;53.214;6.556;2023-11-21T15:21:21;9.30;99.90
51908;DHT22;39320;53.214;6.556;2023-11-21T15:23:48;9.30;99.90
51908;DHT22;39320;53.214;6.556;2023-11-21T15:26:14;9.30;99.90
51908;DHT22;39320;53.214;6.556;2023-11-21T15:28:39;9.30;99.90
51908;DHT22;39320;53.214;6.556;2023-11-21T15:31:05;9.30;99.90
51908;DHT22;39320;53.214;6.556;2023-11-21T15:33:33;9.30;99.90
51908;DHT22;39320;53.214;6.556;2023-11-21T15:36:01;9.30;99.90
51908;DHT22;39320;53.214;6.556;2023-11-21T15:38:28;9.30;99.90
51908;DHT22;39320;53.214;6.556;2023-11-21T15:40:54;9.20;99.90
51908;DHT22;39320;53.214;6.556;2023-11-21T15:43:20;9.20;99.90
51908;DHT22;39320;53.214;6.556;2023-11-21T15:45:46;9.20;99.90
51908;DHT22;39320;53.214;6.556;2023-11-21T15:48:12;9.20;99.90
51908;DHT22;39320;53.214;6.556;2023-11-21T15:50:38;9.30;99.90
51908;DHT22;39320;53.214;6.556;2023-11-21T15:53:03;9.20;99.90
51908;DHT22;39320;53.214;6.556;2023-11-21T15:55:30;9.30;99.90
51908;DHT22;39320;53.214;6.556;2023-11-21T15:57:56;9.30;99.90
51908;DHT22;39320;53.214;6.556;2023-11-21T16:00:22;9.30;99.90